Terminal Aerodrome Forecast
Issued by NWS

Home | Current Version | Previous Version | Text Only | Print | Product List | Glossary On
Versions: 1 2 3 4 5 6 7 8 9 10 11 12 13 14 15 16
000
FTUS45 KLKN 220532
TAFEKO
TAF
KEKO 220532Z 2206/2306 VRB06KT 6SM -SHSN SCT012 OVC040
      TEMPO 2206/2208 3SM -SN OVC012
     FM222000 23015G25KT P6SM -SHSN SCT020 OVC035
     FM230300 25011KT P6SM -SHSN OVC012=

USA.gov is the U.S. government's official web portal to all federal, state and local government web resources and services.